Time,TemperatureF,DewpointF,PressureIn,WindDirection,WindDirectionDegrees,WindSpeedMPH,WindSpeedGustMPH,Humidity,HourlyPrecipIn,Conditions,Clouds,dailyrainin,SoftwareType,DateUTC
2013-02-11 00:13:00,15.8,15.1,30.30,NNW,337,0.0,-999.0,97,-99.99,,,0.00,Acu-Link.com,2013-02-11 05:13:00,
2013-02-11 00:29:00,16.0,15.3,30.31,NNE,22,0.0,-999.0,97,-99.99,,,0.00,Acu-Link.com,2013-02-11 05:29:00,
2013-02-11 00:44:00,16.7,16.0,30.30,NE,45,0.0,-999.0,97,-99.99,,,0.00,Acu-Link.com,2013-02-11 05:44:00,
2013-02-11 00:59:00,17.1,16.2,30.29,NNE,22,0.0,-999.0,96,-99.99,,,0.00,Acu-Link.com,2013-02-11 05:59:00,
2013-02-11 01:14:00,17.4,16.5,30.29,NNE,22,0.0,-999.0,96,-99.99,,,0.00,Acu-Link.com,2013-02-11 06:14:00,
2013-02-11 01:30:00,18.0,17.1,30.28,NNE,22,0.0,-999.0,96,-99.99,,,0.00,Acu-Link.com,2013-02-11 06:30:00,
2013-02-11 01:45:00,18.1,17.2,30.27,NE,45,0.0,-999.0,96,-99.99,,,0.00,Acu-Link.com,2013-02-11 06:45:00,
2013-02-11 02:00:00,18.3,17.4,30.28,NNE,22,0.0,-999.0,96,-99.99,,,0.00,Acu-Link.com,2013-02-11 07:00:00,
2013-02-11 02:16:00,18.7,17.5,30.26,NNE,22,0.0,-999.0,95,-99.99,,,0.00,Acu-Link.com,2013-02-11 07:16:00,
2013-02-11 02:31:00,18.9,17.7,30.26,NNE,22,0.0,-999.0,95,-99.99,,,0.00,Acu-Link.com,2013-02-11 07:31:00,
2013-02-11 02:46:00,19.0,17.8,30.25,North,0,0.0,-999.0,95,-99.99,,,0.00,Acu-Link.com,2013-02-11 07:46:00,
2013-02-11 03:07:00,19.6,18.4,30.24,NNE,22,0.0,-999.0,95,-99.99,,,0.00,Acu-Link.com,2013-02-11 08:07:00,
2013-02-11 03:23:00,19.8,18.6,30.23,NNE,22,0.0,-999.0,95,-99.99,,,0.00,Acu-Link.com,2013-02-11 08:23:00,
2013-02-11 03:38:00,19.9,18.9,30.22,NNE,22,0.0,-999.0,96,-99.99,,,0.00,Acu-Link.com,2013-02-11 08:38:00,
2013-02-11 03:54:00,20.3,19.1,30.21,NNE,22,0.0,-999.0,95,-99.99,,,0.00,Acu-Link.com,2013-02-11 08:54:00,
2013-02-11 04:17:00,20.5,19.3,30.20,NNE,22,0.0,-999.0,95,-99.99,,,0.00,Acu-Link.com,2013-02-11 09:17:00,
2013-02-11 04:32:00,21.0,19.8,30.19,North,0,0.0,-999.0,95,-99.99,,,0.00,Acu-Link.com,2013-02-11 09:32:00,
2013-02-11 04:47:00,21.2,20.2,30.20,NNE,22,0.0,-999.0,96,-99.99,,,0.00,Acu-Link.com,2013-02-11 09:47:00,
2013-02-11 05:02:00,21.6,20.6,30.20,North,0,0.0,-999.0,96,-99.99,,,0.00,Acu-Link.com,2013-02-11 10:02:00,
2013-02-11 05:18:00,21.9,20.7,30.19,NNE,22,0.0,-999.0,95,-99.99,,,0.00,Acu-Link.com,2013-02-11 10:18:00,
2013-02-11 05:33:00,22.3,21.1,30.18,North,0,0.0,-999.0,95,-99.99,,,0.00,Acu-Link.com,2013-02-11 10:33:00,
2013-02-11 05:49:00,22.6,21.6,30.18,NNE,22,0.0,-999.0,96,-99.99,,,0.00,Acu-Link.com,2013-02-11 10:49:00,
2013-02-11 06:04:00,23.0,22.0,30.17,NNE,22,1.7,-999.0,96,-99.99,,,0.00,Acu-Link.com,2013-02-11 11:04:00,
2013-02-11 06:19:00,23.4,22.4,30.17,NNE,22,0.0,-999.0,96,-99.99,,,0.00,Acu-Link.com,2013-02-11 11:19:00,
2013-02-11 06:35:00,23.7,22.7,30.16,NNE,22,0.0,-999.0,96,-99.99,,,0.00,Acu-Link.com,2013-02-11 11:35:00,
2013-02-11 06:50:00,24.3,23.3,30.16,NE,45,0.0,-999.0,96,-99.99,,,0.00,Acu-Link.com,2013-02-11 11:50:00,
2013-02-11 07:05:00,24.6,23.9,30.15,NNE,22,0.0,-999.0,97,-99.99,,,0.00,Acu-Link.com,2013-02-11 12:05:00,
2013-02-11 07:21:00,25.5,25.0,30.13,NE,45,1.1,-999.0,98,-99.99,,,0.00,Acu-Link.com,2013-02-11 12:21:00,
2013-02-11 07:36:00,26.8,26.6,30.12,NNE,22,0.0,-999.0,99,-99.99,,,0.00,Acu-Link.com,2013-02-11 12:36:00,
2013-02-11 07:54:00,28.0,27.8,30.10,ESE,112,0.0,-999.0,99,-99.99,,,0.00,Acu-Link.com,2013-02-11 12:54:00,
2013-02-11 08:10:00,29.5,29.3,30.09,North,0,0.0,-999.0,99,-99.99,,,0.00,Acu-Link.com,2013-02-11 13:10:00,
2013-02-11 08:25:00,30.9,30.7,30.07,SW,225,0.0,-999.0,99,-99.99,,,0.00,Acu-Link.com,2013-02-11 13:25:00,
2013-02-11 08:40:00,32.0,31.8,30.06,WNW,292,0.0,-999.0,99,-99.99,,,0.00,Acu-Link.com,2013-02-11 13:40:00,
2013-02-11 08:56:00,34.2,33.9,30.05,WSW,247,3.2,-999.0,99,-99.99,,,0.00,Acu-Link.com,2013-02-11 13:56:00,
2013-02-11 09:11:00,37.2,36.9,30.03,South,180,2.7,-999.0,99,-99.99,,,0.01,Acu-Link.com,2013-02-11 14:11:00,
2013-02-11 09:27:00,38.1,37.8,30.01,ESE,112,1.7,-999.0,99,-99.99,,,0.02,Acu-Link.com,2013-02-11 14:27:00,
2013-02-11 09:42:00,38.7,38.4,29.99,South,180,1.1,-999.0,99,-99.99,,,0.06,Acu-Link.com,2013-02-11 14:42:00,
2013-02-11 09:57:00,38.7,38.4,29.97,South,180,1.7,-999.0,99,-99.99,,,0.08,Acu-Link.com,2013-02-11 14:57:00,
2013-02-11 10:13:00,39.2,38.9,29.96,South,180,2.2,-999.0,99,-99.99,,,0.11,Acu-Link.com,2013-02-11 15:13:00,
2013-02-11 10:28:00,39.4,39.1,29.94,SSW,202,0.0,-999.0,99,-99.99,,,0.14,Acu-Link.com,2013-02-11 15:28:00,
2013-02-11 10:43:00,40.3,40.0,29.92,SW,225,1.7,-999.0,99,-99.99,,,0.29,Acu-Link.com,2013-02-11 15:43:00,
2013-02-11 10:58:00,41.0,40.7,29.91,SSE,157,2.7,-999.0,99,-99.99,,,0.38,Acu-Link.com,2013-02-11 15:58:00,
2013-02-11 11:14:00,41.5,41.2,29.89,SW,225,1.1,-999.0,99,-99.99,,,0.51,Acu-Link.com,2013-02-11 16:14:00,
2013-02-11 11:29:00,42.1,41.8,29.87,SSE,157,5.3,-999.0,99,-99.99,,,0.65,Acu-Link.com,2013-02-11 16:29:00,
2013-02-11 11:44:00,42.6,42.3,29.87,SSW,202,3.2,-999.0,99,-99.99,,,0.79,Acu-Link.com,2013-02-11 16:44:00,
2013-02-11 11:59:00,43.9,43.6,29.85,SSE,157,4.7,-999.0,99,-99.99,,,1.04,Acu-Link.com,2013-02-11 16:59:00,
2013-02-11 12:15:00,45.0,44.7,29.83,SW,225,8.3,-999.0,99,-99.99,,,1.18,Acu-Link.com,2013-02-11 17:15:00,
2013-02-11 12:30:00,44.4,44.1,29.83,West,270,0.0,-999.0,99,-99.99,,,1.30,Acu-Link.com,2013-02-11 17:30:00,
2013-02-11 12:45:00,43.7,43.4,29.82,SSE,157,0.0,-999.0,99,-99.99,,,1.38,Acu-Link.com,2013-02-11 17:45:00,
2013-02-11 13:00:00,45.1,44.8,29.81,WNW,292,3.7,-999.0,99,-99.99,,,1.49,Acu-Link.com,2013-02-11 18:00:00,
2013-02-11 13:16:00,45.1,44.8,29.78,NNW,337,3.7,-999.0,99,-99.99,,,1.53,Acu-Link.com,2013-02-11 18:16:00,
2013-02-11 13:31:00,45.3,45.0,29.77,South,180,3.2,-999.0,99,-99.99,,,1.56,Acu-Link.com,2013-02-11 18:31:00,
2013-02-11 13:46:00,45.1,44.8,29.75,NNE,22,1.1,-999.0,99,-99.99,,,1.59,Acu-Link.com,2013-02-11 18:46:00,
2013-02-11 14:02:00,44.2,43.9,29.74,ESE,112,3.2,-999.0,99,-99.99,,,1.61,Acu-Link.com,2013-02-11 19:02:00,
2013-02-11 14:17:00,43.9,43.6,29.73,WNW,292,1.7,-999.0,99,-99.99,,,1.62,Acu-Link.com,2013-02-11 19:17:00,
2013-02-11 14:32:00,43.2,42.9,29.73,North,0,0.0,-999.0,99,-99.99,,,1.62,Acu-Link.com,2013-02-11 19:32:00,
2013-02-11 14:48:00,42.8,42.5,29.73,South,180,0.0,-999.0,99,-99.99,,,1.63,Acu-Link.com,2013-02-11 19:48:00,
2013-02-11 15:03:00,43.7,43.4,29.71,ESE,112,1.7,-999.0,99,-99.99,,,1.63,Acu-Link.com,2013-02-11 20:03:00,
2013-02-11 15:18:00,43.9,43.6,29.71,SE,135,1.1,-999.0,99,-99.99,,,1.64,Acu-Link.com,2013-02-11 20:18:00,
2013-02-11 15:34:00,45.0,44.7,29.70,SSW,202,2.7,-999.0,99,-99.99,,,1.64,Acu-Link.com,2013-02-11 20:34:00,
2013-02-11 15:49:00,44.2,43.9,29.68,NNW,337,7.8,-999.0,99,-99.99,,,1.64,Acu-Link.com,2013-02-11 20:49:00,
2013-02-11 16:04:00,44.4,44.1,29.68,West,270,2.7,-999.0,99,-99.99,,,1.64,Acu-Link.com,2013-02-11 21:04:00,
2013-02-11 16:20:00,44.4,44.1,29.68,North,0,1.7,-999.0,99,-99.99,,,1.64,Acu-Link.com,2013-02-11 21:20:00,
2013-02-11 16:35:00,44.2,43.9,29.66,South,180,0.0,-999.0,99,-99.99,,,1.64,Acu-Link.com,2013-02-11 21:35:00,
2013-02-11 16:50:00,44.2,43.9,29.66,NNE,22,0.0,-999.0,99,-99.99,,,1.64,Acu-Link.com,2013-02-11 21:50:00,
2013-02-11 17:06:00,43.2,42.9,29.65,SSE,157,0.0,-999.0,99,-99.99,,,1.64,Acu-Link.com,2013-02-11 22:06:00,
2013-02-11 17:21:00,43.0,42.7,29.63,West,270,0.0,-999.0,99,-99.99,,,1.65,Acu-Link.com,2013-02-11 22:21:00,
2013-02-11 17:36:00,42.4,42.1,29.64,West,270,0.0,-999.0,99,-99.99,,,1.65,Acu-Link.com,2013-02-11 22:36:00,
2013-02-11 17:52:00,42.6,42.3,29.64,South,180,0.0,-999.0,99,-99.99,,,1.65,Acu-Link.com,2013-02-11 22:52:00,
2013-02-11 18:07:00,42.6,42.3,29.63,ESE,112,0.0,-999.0,99,-99.99,,,1.65,Acu-Link.com,2013-02-11 23:07:00,
2013-02-11 18:22:00,42.8,42.5,29.62,SSW,202,3.7,-999.0,99,-99.99,,,1.65,Acu-Link.com,2013-02-11 23:22:00,
2013-02-11 18:38:00,42.6,42.3,29.62,NE,45,0.0,-999.0,99,-99.99,,,1.65,Acu-Link.com,2013-02-11 23:38:00,
2013-02-11 18:53:00,41.9,41.6,29.61,SW,225,0.0,-999.0,99,-99.99,,,1.65,Acu-Link.com,2013-02-11 23:53:00,
2013-02-11 19:08:00,41.4,41.1,29.60,East,90,0.0,-999.0,99,-99.99,,,1.65,Acu-Link.com,2013-02-12 00:08:00,
2013-02-11 19:24:00,40.8,40.5,29.60,NNE,22,0.0,-999.0,99,-99.99,,,1.65,Acu-Link.com,2013-02-12 00:24:00,
2013-02-11 19:39:00,39.6,39.3,29.58,WSW,247,0.0,-999.0,99,-99.99,,,1.65,Acu-Link.com,2013-02-12 00:39:00,
2013-02-11 19:55:00,39.2,38.9,29.58,West,270,0.0,-999.0,99,-99.99,,,1.65,Acu-Link.com,2013-02-12 00:55:00,
2013-02-11 20:10:00,38.8,38.5,29.58,West,270,0.0,-999.0,99,-99.99,,,1.65,Acu-Link.com,2013-02-12 01:10:00,
2013-02-11 20:25:00,38.1,37.8,29.58,ESE,112,0.0,-999.0,99,-99.99,,,1.65,Acu-Link.com,2013-02-12 01:25:00,
2013-02-11 20:40:00,37.8,37.5,29.58,South,180,0.0,-999.0,99,-99.99,,,1.65,Acu-Link.com,2013-02-12 01:40:00,
2013-02-11 20:56:00,37.2,36.9,29.57,SSE,157,0.0,-999.0,99,-99.99,,,1.65,Acu-Link.com,2013-02-12 01:56:00,
2013-02-11 21:11:00,37.2,36.9,29.57,ESE,112,0.0,-999.0,99,-99.99,,,1.65,Acu-Link.com,2013-02-12 02:11:00,
2013-02-11 21:26:00,36.7,36.4,29.57,South,180,0.0,-999.0,99,-99.99,,,1.66,Acu-Link.com,2013-02-12 02:26:00,
2013-02-11 21:42:00,36.7,36.4,29.57,WSW,247,0.0,-999.0,99,-99.99,,,1.66,Acu-Link.com,2013-02-12 02:42:00,
2013-02-11 21:57:00,36.7,36.4,29.58,West,270,0.0,-999.0,99,-99.99,,,1.66,Acu-Link.com,2013-02-12 02:57:00,
2013-02-11 22:13:00,36.7,36.4,29.58,WSW,247,0.0,-999.0,99,-99.99,,,1.66,Acu-Link.com,2013-02-12 03:13:00,
2013-02-11 22:28:00,36.5,36.2,29.57,SW,225,0.0,-999.0,99,-99.99,,,1.66,Acu-Link.com,2013-02-12 03:28:00,
2013-02-11 22:43:00,36.3,36.0,29.57,SSW,202,0.0,-999.0,99,-99.99,,,1.66,Acu-Link.com,2013-02-12 03:43:00,
2013-02-11 22:59:00,35.8,35.5,29.57,WSW,247,0.0,-999.0,99,-99.99,,,1.66,Acu-Link.com,2013-02-12 03:59:00,
2013-02-11 23:14:00,35.1,34.8,29.57,NNE,22,0.0,-999.0,99,-99.99,,,1.66,Acu-Link.com,2013-02-12 04:14:00,
2013-02-11 23:29:00,35.4,35.1,29.58,NE,45,0.0,-999.0,99,-99.99,,,1.66,Acu-Link.com,2013-02-12 04:29:00,
2013-02-11 23:45:00,35.2,34.9,29.58,West,270,0.0,-999.0,99,-99.99,,,1.66,Acu-Link.com,2013-02-12 04:45:00,